Latest Weather Observations for Cleve Airport

IDS60801

Issued at 6:01 am CST Wednesday 2 September 2015 (issued every 30 minutes, with the page automatically refreshed every 10 minutes)

About weather observations | Map of weather stations | Latest weather observations for SA | Other Formats
Station Details ID: 018116 Name: CLEVE AERODROME Lat: -33.71 Lon: 136.50 Height: 175.0 m
Data from the previous 72 hours. | See also: Recent months at Cleve Airport
Date/Time
CST
Temp
°C
App
Temp
°C
Dew
Point
Rel
Hum
%
Delta-T
°C
Wind Press
QNH
hPa
Press
MSL
hPa
Rain
since 9 am
mm
Dir
 
Spd
km/h
Gust
km/h
Spd
kts
Gust
kts
02/06:00am 8.4 2.3 6.5 88 0.9 NNW 28 41 15 22 1002.7 1002.6 6.0
02/05:30am 8.7 2.4 7.3 91 0.7 NNW 30 48 16 26 1003.5 - 6.0
02/05:21am 8.8 2.5 7.4 91 0.7 NNW 30 48 16 26 1003.8 - 6.0
02/05:00am 8.9 3.0 7.4 90 0.7 NNW 28 41 15 22 1004.0 - 6.0
02/04:30am 9.2 2.9 7.5 89 0.8 NNW 30 43 16 23 1004.0 - 6.0
02/04:00am 9.1 3.5 7.1 87 0.9 NNW 26 41 14 22 1004.3 - 6.0
02/03:30am 9.2 4.0 7.2 87 1.0 NNW 24 33 13 18 1004.3 - 6.0
02/03:00am 9.5 4.3 7.1 85 1.1 NNW 24 33 13 18 1004.5 1004.4 6.0
02/02:30am 9.7 5.2 7.1 84 1.2 NNW 20 35 11 19 1005.2 - 6.0
02/02:00am 9.8 5.0 7.2 84 1.2 NNW 22 35 12 19 1005.4 - 6.0
02/01:30am 10.2 5.1 7.6 84 1.3 NW 24 37 13 20 1005.4 - 6.0
02/01:00am 10.4 6.0 7.6 83 1.4 NW 20 32 11 17 1005.7 - 6.0
02/12:30am 10.7 6.0 7.9 83 1.4 NW 22 30 12 16 1006.5 - 6.0
02/12:00am 10.8 6.8 8.9 88 1.0 NW 20 33 11 18 1006.0 1006.0 6.0
 
Date/Time
CST
Temp
°C
App
Temp
°C
Dew
Point
Rel
Hum
%
Delta-T
°C
Wind Press
QNH
hPa
Press
MSL
hPa
Rain
since 9 am
mm
Dir
 
Spd
km/h
Gust
km/h
Spd
kts
Gust
kts
01/11:30pm 10.5 7.0 8.8 89 0.8 NNW 17 24 9 13 1006.0 - 5.8
01/11:00pm 10.6 7.0 8.4 86 1.1 NW 17 22 9 12 1006.3 - 5.6
01/10:30pm 10.9 7.0 9.3 90 0.8 WNW 20 28 11 15 1006.6 - 5.6
01/10:00pm 11.6 6.1 10.5 93 0.6 NW 30 46 16 25 1006.8 - 5.4
01/09:55pm 11.8 6.8 11.0 95 0.4 NNW 28 46 15 25 1006.6 - 5.0
01/09:30pm 11.5 5.2 9.6 88 1.0 N 33 50 18 27 1005.5 - 4.6
01/09:22pm 11.3 5.9 9.6 89 0.9 N 28 46 15 25 1005.4 - 4.6
01/09:00pm 11.2 6.8 8.8 85 1.2 NNW 22 35 12 19 1005.6 1005.5 4.2
01/08:30pm 11.4 6.1 8.4 82 1.5 N 26 35 14 19 1005.8 - 4.2
01/08:00pm 11.9 5.8 8.4 79 1.7 N 30 43 16 23 1005.8 - 3.8
01/07:33pm 12.1 4.3 8.4 78 1.8 N 39 57 21 31 1005.5 - 3.0
01/07:30pm 12.5 4.3 8.0 74 2.2 N 41 57 22 31 1005.3 - 2.8
01/07:19pm 14.6 6.7 6.2 57 4.1 N 37 56 20 30 1004.4 - 2.4
01/07:00pm 15.0 6.3 5.8 54 4.4 N 41 54 22 29 1003.9 - 2.4
01/06:30pm 14.8 7.2 5.9 55 4.3 N 35 46 19 25 1003.5 - 2.4
01/06:00pm 14.8 7.7 6.6 58 4.0 N 33 44 18 24 1003.6 1003.5 2.4
01/05:30pm 14.8 8.7 8.1 64 3.4 N 30 43 16 23 1003.5 - 2.4
01/05:13pm 15.7 9.8 8.9 64 3.5 N 30 48 16 26 1003.9 - 2.4
01/05:00pm 16.0 9.7 9.0 63 3.6 N 32 43 17 23 1004.1 - 2.4
01/04:30pm 15.6 10.6 9.7 68 3.1 N 26 39 14 21 1004.7 - 2.4
01/04:00pm 15.4 9.9 10.4 72 2.7 N 30 41 16 22 1005.1 - 2.4
01/03:51pm 15.2 10.2 10.8 75 2.4 N 28 46 15 25 1005.2 - 2.4
01/03:30pm 14.6 8.7 11.0 79 1.9 N 33 41 18 22 1005.5 - 2.2
01/03:05pm 16.7 9.4 8.9 60 4.1 N 37 57 20 31 1005.6 - 1.6
01/03:00pm 16.5 9.3 9.0 61 3.9 N 37 52 20 28 1005.6 1005.5 1.6
01/02:30pm 17.5 9.2 9.2 58 4.4 N 43 65 23 35 1005.2 - 1.6
01/02:11pm 18.2 11.7 9.0 55 4.8 N 33 54 18 29 1005.6 - 1.6
01/02:00pm 17.2 9.7 8.1 55 4.7 N 37 50 20 27 1005.8 - 1.6
01/01:37pm 15.9 9.6 8.9 63 3.6 N 32 50 17 27 1006.9 - 1.6
01/01:30pm 15.3 11.0 9.4 68 3.1 N 22 35 12 19 1007.1 - 1.6
01/01:00pm 11.8 7.8 8.3 79 1.7 N 19 24 10 13 1007.7 - 1.6
01/12:30pm 10.6 4.5 8.2 85 1.2 N 30 43 16 23 1008.9 - 1.4
01/12:00pm 10.8 4.9 7.7 81 1.5 N 28 37 15 20 1009.3 1009.2 0.4
01/11:30am 12.2 6.0 6.0 66 2.9 NNW 28 37 15 20 1009.8 - 0.0
01/11:00am 14.5 7.0 4.2 50 4.8 NNW 33 54 18 29 1010.1 - 0.0
01/10:35am 15.1 7.7 4.2 48 5.1 NNW 32 50 17 27 1010.1 - 0.0
01/10:30am 15.2 7.6 4.0 47 5.2 NNW 33 50 18 27 1010.1 - 0.0
01/10:00am 15.3 6.5 3.8 46 5.3 NNW 39 57 21 31 1009.6 - 0.0
01/09:42am 14.8 7.8 4.2 49 4.9 NNW 30 48 16 26 1009.7 - 0.0
01/09:30am 15.0 8.7 3.5 46 5.3 N 26 37 14 20 1010.1 - 0.0
01/09:00am 14.6 8.2 3.4 47 5.1 N 26 39 14 21 1010.4 1010.3 0.0
01/08:30am 15.0 7.7 2.5 43 5.6 N 30 43 16 23 1010.3 - 0.0
01/08:00am 14.7 7.9 3.2 46 5.2 N 28 37 15 20 1010.3 - 0.0
01/07:30am 15.5 7.6 2.0 40 6.0 N 33 46 18 25 1010.3 - 0.0
01/07:00am 14.9 7.2 2.1 42 5.7 N 32 41 17 22 1010.3 - 0.0
01/06:30am 15.3 7.4 2.5 42 5.8 N 33 44 18 24 1010.4 - 0.0
01/06:00am 15.4 8.1 2.2 41 5.9 N 30 41 16 22 1010.5 1010.5 0.0
01/05:30am 15.8 8.4 1.9 39 6.2 N 30 44 16 24 1010.7 - 0.0
01/05:00am 15.9 8.0 2.3 40 6.1 N 33 46 18 25 1010.7 - 0.0
01/04:30am 15.5 7.7 2.7 42 5.8 NNW 33 44 18 24 1010.7 - 0.0
01/04:00am 15.2 8.4 3.0 44 5.6 N 28 41 15 22 1010.9 - 0.0
01/03:30am 14.6 8.3 3.7 48 5.0 N 26 35 14 19 1011.3 - 0.0
01/03:00am 14.9 8.6 3.7 47 5.2 N 26 35 14 19 1011.7 1011.7 0.0
01/02:30am 14.6 8.4 4.3 50 4.8 N 26 33 14 18 1012.2 - 0.0
01/02:00am 14.8 8.7 4.8 51 4.7 N 26 35 14 19 1012.5 - 0.0
01/01:30am 15.3 9.7 5.2 51 4.8 N 24 33 13 18 1013.1 - 0.0
01/01:00am 15.5 9.9 5.4 51 4.8 N 24 35 13 19 1013.5 - 0.0
01/12:30am 15.1 9.8 5.0 51 4.8 N 22 30 12 16 1013.6 - 0.0
01/12:00am 14.4 10.1 5.2 54 4.4 N 17 24 9 13 1013.6 1013.5 0.0
 
Date/Time
CST
Temp
°C
App
Temp
°C
Dew
Point
Rel
Hum
%
Delta-T
°C
Wind Press
QNH
hPa
Press
MSL
hPa
Rain
since 9 am
mm
Dir
 
Spd
km/h
Gust
km/h
Spd
kts
Gust
kts
31/11:30pm 14.7 9.9 4.7 51 4.7 NNW 19 24 10 13 1014.4 - 0.0
31/11:00pm 14.8 10.0 4.8 51 4.7 NNW 19 26 10 14 1014.9 - 0.0
31/10:30pm 14.4 9.7 5.0 53 4.4 NNW 19 28 10 15 1015.3 - 0.0
31/10:00pm 14.2 9.1 5.8 57 4.0 N 22 26 12 14 1015.0 - 0.0
31/09:30pm 14.7 9.6 5.8 55 4.3 N 22 28 12 15 1015.4 - 0.0
31/09:00pm 15.4 10.2 5.3 51 4.8 N 22 30 12 16 1015.2 1015.3 0.0
31/08:30pm 15.0 10.4 5.8 54 4.4 N 19 22 10 12 1015.2 - 0.0
31/08:00pm 14.7 10.9 6.0 56 4.2 N 15 19 8 10 1015.3 - 0.0
31/07:30pm 15.3 12.0 6.6 56 4.3 N 13 17 7 9 1015.3 - 0.0
31/07:00pm 15.5 12.0 7.0 57 4.2 N 15 17 8 9 1015.2 - 0.0
31/06:30pm 15.0 12.8 7.8 62 3.6 N 9 13 5 7 1015.2 - 0.0
31/06:00pm 16.4 13.8 7.6 56 4.4 N 11 13 6 7 1015.1 1015.2 0.0
31/05:30pm 18.0 15.3 7.4 50 5.4 N 11 17 6 9 1015.0 - 0.0
31/05:00pm 18.8 16.8 8.7 52 5.3 NNW 9 11 5 6 1015.0 - 0.0
31/04:30pm 18.7 16.4 7.5 48 5.7 N 9 13 5 7 1015.0 - 0.0
31/04:00pm 19.7 15.9 5.7 40 7.0 NNW 15 19 8 10 1015.2 - 0.0
31/03:30pm 21.9 18.6 6.2 36 8.0 NW 13 19 7 10 1015.2 - 0.0
31/03:00pm 21.4 17.2 5.7 36 7.9 N 17 28 9 15 1015.4 1015.5 0.0
31/02:30pm 21.0 16.4 5.4 36 7.8 NNW 19 28 10 15 1015.7 - 0.0
31/02:00pm 21.3 16.6 5.2 35 8.0 NW 19 26 10 14 1016.1 - 0.0
31/01:30pm 20.9 16.1 4.9 35 7.9 N 19 32 10 17 1016.5 - 0.0
31/01:00pm 20.4 15.7 6.0 39 7.2 NNW 20 32 11 17 1016.9 - 0.0
31/12:30pm 20.2 15.5 6.2 40 7.1 N 20 32 11 17 1017.4 - 0.0
31/12:00pm 19.6 14.0 5.3 39 7.0 N 24 35 13 19 1018.0 1018.1 0.0
31/11:30am 18.9 12.7 6.1 43 6.4 N 28 37 15 20 1018.4 - 0.0
31/11:00am 18.1 11.1 4.3 40 6.6 N 30 39 16 21 1018.7 - 0.0
31/10:30am 17.1 10.0 5.4 46 5.7 N 32 43 17 23 1018.7 - 0.0
31/10:00am 15.5 8.5 6.0 53 4.6 N 32 43 17 23 1019.0 - 0.0
31/09:30am 14.4 7.2 5.0 53 4.4 N 32 41 17 22 1019.3 - 0.0
31/09:00am 13.3 5.8 3.7 52 4.4 N 32 43 17 23 1019.6 1019.6 0.0
31/08:30am 12.6 5.8 3.0 52 4.3 N 28 37 15 20 1019.4 - 0.0
31/08:00am 11.7 5.2 2.7 54 4.0 N 26 35 14 19 1019.4 - 0.0
31/07:30am 10.7 4.1 2.0 55 3.7 N 26 33 14 18 1019.2 - 0.0
31/07:00am 9.9 3.6 1.8 57 3.4 N 24 30 13 16 1019.1 - 0.0
31/06:30am 9.4 3.9 1.8 59 3.2 N 20 24 11 13 1019.2 - 0.0
31/06:00am 9.6 4.1 1.8 58 3.3 N 20 28 11 15 1018.9 1018.9 0.0
31/05:30am 9.7 3.8 1.8 58 3.3 N 22 28 12 15 1019.0 - 0.0
31/05:00am 10.0 3.8 1.9 57 3.4 N 24 32 13 17 1018.9 - 0.0
31/04:30am 9.8 3.9 1.9 58 3.3 N 22 30 12 16 1018.9 - 0.0
31/04:00am 9.5 4.0 2.1 60 3.1 NNW 20 26 11 14 1019.0 - 0.0
31/03:30am 9.0 4.1 2.1 62 2.9 N 17 24 9 13 1019.2 - 0.0
31/03:00am 6.8 2.3 2.1 72 1.9 N 15 19 8 10 1019.5 1019.5 0.0
31/02:30am 6.7 2.2 2.4 74 1.8 N 15 17 8 9 1019.9 - 0.0
31/02:00am 6.3 1.8 2.0 74 1.8 N 15 19 8 10 1020.3 - 0.0
31/01:30am 7.0 2.1 1.9 70 2.1 N 17 19 9 10 1020.6 - 0.0
31/01:00am 7.4 2.5 1.9 68 2.3 N 17 19 9 10 1020.9 - 0.0
31/12:30am 7.4 2.9 1.9 68 2.3 N 15 17 8 9 1021.0 - 0.0
31/12:00am 7.6 2.7 2.1 68 2.3 N 17 20 9 11 1021.0 1021.1 0.0
 
Date/Time
CST
Temp
°C
App
Temp
°C
Dew
Point
Rel
Hum
%
Delta-T
°C
Wind Press
QNH
hPa
Press
MSL
hPa
Rain
since 9 am
mm
Dir
 
Spd
km/h
Gust
km/h
Spd
kts
Gust
kts
30/11:30pm 7.8 2.5 2.1 67 2.4 N 19 20 10 11 1021.2 - 0.0
30/11:00pm 8.1 2.8 1.9 65 2.6 N 19 22 10 12 1021.4 - 0.0
30/10:30pm 8.4 3.1 1.8 63 2.8 N 19 20 10 11 1021.9 - 0.0
30/10:00pm 8.0 2.8 2.5 68 2.3 N 19 20 10 11 1022.0 - 0.0
30/09:30pm 6.5 2.1 2.6 76 1.6 NNE 15 19 8 10 1022.0 - 0.0
30/09:00pm 7.8 3.0 2.5 69 2.2 NNE 17 19 9 10 1021.7 1021.8 0.0
30/08:30pm 8.7 3.9 2.7 66 2.6 ENE 17 20 9 11 1021.3 - 0.0
30/08:00pm 8.2 5.2 3.9 74 1.9 NE 9 13 5 7 1021.6 - 0.0
30/07:30pm 7.2 4.2 4.0 80 1.4 ENE 9 13 5 7 1021.4 - 0.0
30/07:00pm 8.1 4.8 4.3 77 1.7 ENE 11 15 6 8 1021.5 - 0.0
30/06:30pm 8.7 4.8 5.3 79 1.5 NE 15 17 8 9 1021.6 - 0.0
30/06:00pm 10.9 7.1 5.7 70 2.4 E 15 19 8 10 1021.6 1021.7 0.0
30/05:30pm 12.6 8.9 6.2 65 3.1 E 15 19 8 10 1021.4 - 0.0
30/05:00pm 13.5 9.5 6.8 64 3.3 SE 17 20 9 11 1021.2 - 0.0
30/04:30pm 16.7 14.0 5.6 48 5.4 NNE 9 15 5 8 1021.0 - 0.0
30/04:00pm 17.1 14.4 5.7 47 5.6 NE 9 15 5 8 1021.1 - 0.0
30/03:30pm 17.1 13.8 4.8 44 5.9 N 11 20 6 11 1021.4 - 0.0
30/03:00pm 17.4 14.8 4.4 42 6.2 NNW 7 11 4 6 1021.6 1021.7 0.0
30/02:30pm 16.9 13.3 4.9 45 5.8 NNE 13 20 7 11 1021.8 - 0.0
30/02:00pm 17.0 13.5 3.7 41 6.2 NNW 11 17 6 9 1021.9 - 0.0
30/01:30pm 16.6 13.1 5.6 48 5.3 N 13 20 7 11 1022.3 - 0.0
30/01:00pm 16.4 12.8 5.1 47 5.4 N 13 22 7 12 1022.7 - 0.0
30/12:30pm 16.4 12.5 5.4 48 5.3 NNW 15 24 8 13 1023.2 - 0.0
30/12:00pm 16.6 13.4 6.7 52 4.9 N 13 20 7 11 1023.7 1023.8 0.0
30/11:30am 15.4 12.0 3.9 46 5.3 NW 11 20 6 11 1024.3 - 0.0
30/11:00am 15.0 10.4 5.8 54 4.4 N 19 26 10 14 1024.4 - 0.0
30/10:30am 15.0 11.3 7.8 62 3.6 N 17 22 9 12 1024.6 - 0.0
30/10:00am 13.9 9.6 5.3 56 4.1 N 17 26 9 14 1024.9 - 0.0
30/09:30am 13.2 9.5 6.3 63 3.3 N 15 24 8 13 1025.0 - 0.0
30/09:00am 12.1 8.6 7.2 72 2.4 NNE 15 20 8 11 1025.0 1025.1 0.2
30/08:30am 11.1 8.0 7.4 78 1.8 N 13 17 7 9 1024.9 - 0.2
30/08:00am 9.0 6.6 7.1 88 0.9 N 9 13 5 7 1024.8 - 0.2
30/07:30am 6.2 3.4 5.3 94 0.4 N 9 13 5 7 1024.6 - 0.2
30/07:00am 4.0 0.9 3.7 98 0.1 N 9 13 5 7 1024.4 - 0.2
30/06:30am 3.6 0.8 2.9 95 0.3 NNE 7 11 4 6 1024.5 - 0.0

Other Formats:

Comma delimited format used in spreadsheet applications
http://www.bom.gov.au/fwo/IDS60801/IDS60801.94662.axf

JavaScript Object Notation format (JSON) in row-major order
http://www.bom.gov.au/fwo/IDS60801/IDS60801.94662.json